Pagrindinis puslapis
METAR-TAF:

METAR-TAF

Oro uostai :

Brunėjus, Brunėjus

platuma: 04-56N, ilguma: 114-56E, Aukštis: 22 m

Dabartinis oras

Ataskaita buvo paskelbta 34 minutes, ne 02:30 UTC
Vėjas 5 kt iš Pietų/Pietryčių
Temperatūra 30°C
Drėgmė 55%
Slėgis 1011 hPa
Matomumas: 4000 m
Mažai debesys ne aukštis 1600 ft
Su prošvaistėmis ne aukštis 30000 ft
migla

METAR: WBSB 170230Z 16005KT 4000 HZ FEW016 BKN300 30/20 Q1011 NOSIG

Laikas: 11:04 (03:04 UTC)

Prognozė

Ataskaita buvo paskelbta 4 valandos ir 14 minutes, ne 22:50 UTC
Prognozė galioja nuo 17 metu 00 UTC su 18 metu 06 UTC
Vėjas 2 kt iš Pietų/Pietvakarių
Matomumas: 3000 m
Mažai debesys ne aukštis 1500 ft
migla
Tapsmas
nuo 17 metu 03 UTC su 17 metu 05 UTC
Vėjas 8 kt iš Šiaurės Vakarų
Mažai debesys ne aukštis 1600 ft

TAF: WBSB 162250Z 1700/1806 20002KT 3000 HZ FEW015 BECMG 1703/1705 31008KT FEW016

Orai ataskaitas ir orų prognozės (METAR, TAF).

turimą stotys yra geltonos ir raudonos taškus žemėlapyje.

Perkelti pele per norėdami pamatyti stoties vardą.

Tada spustelėkite, norėdami matyti oro stebėjimo ir prognozės.

Norėdami pakeisti žemėlapį: spustelėkite ant žalios mygtukų su juodo kryžiaus žemyn,; žalią mygtuką su brūkšneliu, jei norite nutolinti; arba žalių rodyklių gretimoms žemėlapius.


METAR-TAF: